createdAt,value
2023-01-19T00:03:18.041Z,37.33
2023-01-19T00:08:22.859Z,30.30
2023-01-19T00:13:27.865Z,33.50
2023-01-19T00:23:35.816Z,34.30
2023-01-19T00:28:39.232Z,25.30
2023-01-19T00:33:42.692Z,29.73
2023-01-19T00:38:47.515Z,30.55
2023-01-19T00:43:50.980Z,28.48
2023-01-19T00:48:54.269Z,28.23
2023-01-19T00:54:00.000Z,23.17
2023-01-19T00:59:03.528Z,27.45
2023-01-19T01:04:07.030Z,24.55
2023-01-19T01:09:13.094Z,24.88
2023-01-19T01:14:16.616Z,24.65
2023-01-19T01:19:20.558Z,27.75
2023-01-19T01:24:25.338Z,23.07
2023-01-19T01:29:28.895Z,21.88
2023-01-19T01:34:32.243Z,25.80
2023-01-19T01:39:37.123Z,27.77
2023-01-19T01:49:57.761Z,23.67
2023-01-19T01:55:06.962Z,26.30
2023-01-19T02:00:12.223Z,26.92
2023-01-19T02:05:21.231Z,28.58
2023-01-19T02:10:43.329Z,26.85
2023-01-19T02:15:46.826Z,23.08
2023-01-19T02:21:04.786Z,29.48
2023-01-19T02:26:12.054Z,27.58
2023-01-19T02:31:16.371Z,24.23
2023-01-19T02:36:26.097Z,23.63
2023-01-19T02:41:37.373Z,25.92
2023-01-19T02:46:41.203Z,20.38
2023-01-19T02:51:45.416Z,20.75
2023-01-19T02:57:15.657Z,23.40
2023-01-19T03:02:33.370Z,26.45
2023-01-19T03:07:50.685Z,23.98
2023-01-19T03:13:04.209Z,23.75
2023-01-19T03:18:10.944Z,22.30
2023-01-19T03:23:16.618Z,26.63
2023-01-19T03:28:24.305Z,26.50
2023-01-19T03:33:31.550Z,25.92
2023-01-19T03:38:38.117Z,26.33
2023-01-19T03:43:44.581Z,22.85
2023-01-19T03:48:49.802Z,23.67
2023-01-19T03:53:53.200Z,27.15
2023-01-19T03:58:57.941Z,27.20
2023-01-19T04:04:01.428Z,25.02
2023-01-19T04:09:05.038Z,25.83
2023-01-19T04:14:09.958Z,32.70
2023-01-19T04:19:13.608Z,29.15
2023-01-19T04:24:16.963Z,24.55
2023-01-19T04:29:21.844Z,26.27
2023-01-19T04:34:25.296Z,27.33
2023-01-19T04:39:28.800Z,27.75
2023-01-19T04:44:33.706Z,33.42
2023-01-19T04:54:41.258Z,27.95
2023-01-19T04:59:46.111Z,30.55
2023-01-19T05:09:52.985Z,28.15
2023-01-19T05:14:57.800Z,30.15
2023-01-19T05:20:01.129Z,26.10
2023-01-19T05:25:05.020Z,28.77
2023-01-19T05:30:11.457Z,29.60
2023-01-19T05:35:20.109Z,30.08
2023-01-19T05:40:28.898Z,35.30
2023-01-19T05:45:34.087Z,34.78
2023-01-19T05:50:37.426Z,32.30
2023-01-19T05:55:40.771Z,29.02
2023-01-19T06:00:45.505Z,36.33
2023-01-19T06:05:49.057Z,30.95
2023-01-19T06:10:52.540Z,33.60
2023-01-19T06:16:01.448Z,37.00
2023-01-19T06:21:07.548Z,32.00
2023-01-19T06:26:10.985Z,41.25
2023-01-19T06:31:16.002Z,30.95
2023-01-19T06:36:19.581Z,34.65
2023-01-19T06:41:22.895Z,35.60
2023-01-19T06:46:27.614Z,37.50
2023-01-19T06:51:33.233Z,40.17
2023-01-19T06:56:36.519Z,37.65
2023-01-19T07:01:41.587Z,47.20
2023-01-19T07:06:45.238Z,41.30
2023-01-19T07:11:49.960Z,47.70
2023-01-19T07:16:55.004Z,43.75
2023-01-19T07:21:58.773Z,43.33
2023-01-19T07:27:02.340Z,46.83
2023-01-19T07:32:07.681Z,44.05
2023-01-19T07:37:11.343Z,38.15
2023-01-19T07:42:14.733Z,38.95
2023-01-19T07:47:20.107Z,40.40
2023-01-19T07:52:23.597Z,38.40
2023-01-19T07:57:26.916Z,38.05
2023-01-19T08:02:32.022Z,36.83
2023-01-19T08:07:35.431Z,38.17
2023-01-19T08:12:38.760Z,42.58
2023-01-19T08:17:44.207Z,34.95
2023-01-19T08:22:48.949Z,36.88
2023-01-19T08:33:04.813Z,36.80
2023-01-19T08:38:09.771Z,43.92
2023-01-19T08:48:22.219Z,39.33
2023-01-19T08:53:25.768Z,39.78
2023-01-19T08:58:29.606Z,47.50
2023-01-19T09:03:34.476Z,37.85
2023-01-19T09:08:38.739Z,51.17
2023-01-19T09:13:42.776Z,41.78
2023-01-19T09:18:47.528Z,41.67
2023-01-19T09:23:50.941Z,50.75
2023-01-19T09:28:54.425Z,44.58
2023-01-19T09:33:59.205Z,46.78
2023-01-19T09:39:03.060Z,47.17
2023-01-19T09:44:09.676Z,38.85
2023-01-19T09:49:17.777Z,48.78
2023-01-19T09:54:25.520Z,44.03
2023-01-19T09:59:31.534Z,46.00
2023-01-19T10:04:41.411Z,44.22
2023-01-19T10:09:59.178Z,47.40
2023-01-19T10:15:12.560Z,42.65
2023-01-19T10:20:26.226Z,40.80
2023-01-19T10:25:29.977Z,38.85
2023-01-19T10:30:33.819Z,42.90
2023-01-19T10:35:39.129Z,52.77
2023-01-19T10:40:49.780Z,50.40
2023-01-19T10:45:53.147Z,48.63
2023-01-19T10:51:05.995Z,57.58
2023-01-19T10:56:18.687Z,52.85
2023-01-19T11:01:24.575Z,41.95
2023-01-19T11:06:31.287Z,53.83
2023-01-19T11:11:46.680Z,56.70
2023-01-19T11:16:53.193Z,50.05
2023-01-19T11:22:12.627Z,51.47
2023-01-19T11:27:18.563Z,55.85
2023-01-19T11:32:23.681Z,40.08
2023-01-19T11:37:31.734Z,52.55
2023-01-19T11:42:37.328Z,52.10
2023-01-19T11:47:44.260Z,56.25
2023-01-19T11:52:53.613Z,51.40
2023-01-19T11:57:57.579Z,60.25
2023-01-19T12:03:06.912Z,57.45
2023-01-19T12:08:16.941Z,62.75
2023-01-19T12:13:23.831Z,59.92
2023-01-19T12:18:32.968Z,67.20
2023-01-19T12:23:55.021Z,59.40
2023-01-19T12:29:01.677Z,56.92
2023-01-19T12:34:36.203Z,58.80
2023-01-19T12:39:50.385Z,67.28
2023-01-19T12:45:08.212Z,65.43
2023-01-19T12:50:19.299Z,68.40
2023-01-19T12:55:26.069Z,61.65
2023-01-19T13:00:33.557Z,64.22
2023-01-19T13:05:58.372Z,66.80
2023-01-19T13:11:24.355Z,72.45
2023-01-19T13:17:00.406Z,60.92
2023-01-19T13:23:04.952Z,68.18
2023-01-19T13:28:17.565Z,68.30
2023-01-19T13:33:23.664Z,58.53
2023-01-19T13:38:29.337Z,61.22
2023-01-19T13:43:38.698Z,58.03
2023-01-19T13:48:53.624Z,56.33
2023-01-19T13:53:58.232Z,62.83
2023-01-19T13:59:11.989Z,59.80
2023-01-19T14:04:30.743Z,53.47
2023-01-19T14:09:34.206Z,54.90
2023-01-19T14:14:39.861Z,54.40
2023-01-19T14:19:50.251Z,61.67
2023-01-19T14:24:53.796Z,59.08
2023-01-19T14:30:16.554Z,69.50
2023-01-19T14:35:26.201Z,56.65
2023-01-19T14:40:31.168Z,65.88
2023-01-19T14:50:51.013Z,59.58
2023-01-19T14:56:07.041Z,55.92
2023-01-19T15:01:12.048Z,65.50
2023-01-19T15:06:18.115Z,58.75
2023-01-19T15:11:24.973Z,68.25
2023-01-19T15:16:33.033Z,64.90
2023-01-19T15:21:36.481Z,62.47
2023-01-19T15:26:41.367Z,53.15
2023-01-19T15:36:49.349Z,56.00
2023-01-19T15:41:52.691Z,55.38
2023-01-19T15:46:57.969Z,54.60
2023-01-19T15:52:01.585Z,50.45
2023-01-19T15:57:05.156Z,46.05
2023-01-19T16:02:11.313Z,43.58
2023-01-19T16:07:14.858Z,42.80
2023-01-19T16:12:18.188Z,42.75
2023-01-19T16:17:23.168Z,38.95
2023-01-19T16:22:26.680Z,40.92
2023-01-19T16:27:30.580Z,41.78
2023-01-19T16:32:36.582Z,45.20
2023-01-19T16:37:40.144Z,39.03
2023-01-19T16:42:43.471Z,38.03
2023-01-19T16:47:50.819Z,35.08
2023-01-19T16:52:57.674Z,34.20
2023-01-19T16:58:01.161Z,32.47
2023-01-19T17:03:06.119Z,36.63
2023-01-19T17:08:09.727Z,38.80
2023-01-19T17:13:13.066Z,38.28
2023-01-19T17:18:17.907Z,33.92
2023-01-19T17:23:21.370Z,32.53
2023-01-19T17:28:25.084Z,36.70
2023-01-19T17:33:29.855Z,33.00
2023-01-19T17:38:33.445Z,30.00
2023-01-19T17:43:36.858Z,31.42
2023-01-19T17:48:41.900Z,30.00
2023-01-19T17:58:50.974Z,36.75
2023-01-19T18:03:56.318Z,28.83
2023-01-19T18:09:00.284Z,24.13
2023-01-19T18:14:03.700Z,24.37
2023-01-19T18:19:10.645Z,29.73
2023-01-19T18:24:14.095Z,35.00
2023-01-19T18:29:20.657Z,27.33
2023-01-19T18:34:25.388Z,33.78
2023-01-19T18:39:31.247Z,33.47
2023-01-19T18:44:34.567Z,32.92
2023-01-19T18:49:39.491Z,35.22
2023-01-19T18:59:49.023Z,43.00
2023-01-19T19:04:53.795Z,48.28
2023-01-19T19:09:57.234Z,61.40
2023-01-19T19:15:00.829Z,50.97
2023-01-19T19:20:05.993Z,57.85
2023-01-19T19:25:10.214Z,59.50
2023-01-19T19:30:15.968Z,53.10
2023-01-19T19:35:21.454Z,53.33
2023-01-19T19:40:25.239Z,51.22
2023-01-19T19:45:28.556Z,54.40
2023-01-19T19:50:33.433Z,59.47
2023-01-19T20:00:39.899Z,58.45
2023-01-19T20:05:45.047Z,67.05
2023-01-19T20:10:48.528Z,61.20
2023-01-19T20:15:52.715Z,59.47
2023-01-19T20:20:57.672Z,66.63
2023-01-19T20:26:05.668Z,57.33
2023-01-19T20:31:16.975Z,65.00
2023-01-19T20:36:24.446Z,65.45
2023-01-19T20:41:29.891Z,75.47
2023-01-19T20:46:33.226Z,56.65
2023-01-19T20:51:45.334Z,68.13
2023-01-19T20:56:49.009Z,59.35
2023-01-19T21:01:52.639Z,59.90
2023-01-19T21:06:57.480Z,51.28
2023-01-19T21:12:00.974Z,57.45
2023-01-19T21:17:04.326Z,54.33
2023-01-19T21:22:19.375Z,61.03
2023-01-19T21:32:27.526Z,61.38
2023-01-19T21:42:35.662Z,57.87
2023-01-19T21:47:39.053Z,62.42
2023-01-19T21:52:44.435Z,63.10
2023-01-19T21:57:47.763Z,69.95
2023-01-19T22:03:03.071Z,69.82
2023-01-19T22:08:09.778Z,74.65
2023-01-19T22:13:13.238Z,76.38
2023-01-19T22:18:16.669Z,73.35
2023-01-19T22:23:21.377Z,60.25
2023-01-19T22:28:24.856Z,78.43
2023-01-19T22:33:29.498Z,78.70
2023-01-19T22:38:34.201Z,78.63
2023-01-19T22:43:39.620Z,81.22
2023-01-19T22:53:47.944Z,83.13
2023-01-19T22:58:51.386Z,83.47
2023-01-19T23:03:55.347Z,87.35
2023-01-19T23:09:02.767Z,88.70
2023-01-19T23:14:07.563Z,80.35
2023-01-19T23:19:12.837Z,75.25
2023-01-19T23:24:17.960Z,87.00
2023-01-19T23:29:21.492Z,83.63
2023-01-19T23:34:24.947Z,71.60
2023-01-19T23:39:29.955Z,78.32
2023-01-19T23:44:35.238Z,73.30
2023-01-19T23:49:39.911Z,68.88
2023-01-19T23:54:45.025Z,76.15
2023-01-19T23:59:48.441Z,76.10
